createdAt,value
2022-09-10T00:00:48.680Z,16.01
2022-09-10T00:03:14.880Z,15.96
2022-09-10T00:05:41.121Z,15.88
2022-09-10T00:08:07.235Z,15.86
2022-09-10T00:10:33.430Z,15.79
2022-09-10T00:12:59.549Z,15.72
2022-09-10T00:15:25.696Z,15.72
2022-09-10T00:17:51.878Z,15.77
2022-09-10T00:20:18.096Z,15.83
2022-09-10T00:22:44.195Z,15.74
2022-09-10T00:25:10.356Z,15.73
2022-09-10T00:27:36.757Z,15.86
2022-09-10T00:30:02.837Z,15.79
2022-09-10T00:32:28.916Z,15.69
2022-09-10T00:34:55.025Z,15.78
2022-09-10T00:37:21.119Z,15.73
2022-09-10T00:39:47.473Z,15.67
2022-09-10T00:42:13.589Z,15.67
2022-09-10T00:44:39.739Z,15.63
2022-09-10T00:47:05.837Z,15.66
2022-09-10T00:49:31.946Z,15.68
2022-09-10T00:51:58.025Z,15.61
2022-09-10T00:54:24.115Z,15.53
2022-09-10T00:56:50.225Z,15.66
2022-09-10T00:59:16.335Z,15.74
2022-09-10T01:01:42.508Z,15.73
2022-09-10T01:04:08.645Z,15.75
2022-09-10T01:06:34.721Z,15.55
2022-09-10T01:09:00.828Z,15.52
2022-09-10T01:11:26.981Z,15.49
2022-09-10T01:13:53.086Z,15.59
2022-09-10T01:16:19.193Z,15.38
2022-09-10T01:18:45.378Z,15.33
2022-09-10T01:21:11.476Z,15.41
2022-09-10T01:23:37.580Z,15.39
2022-09-10T01:26:03.681Z,15.40
2022-09-10T01:28:29.794Z,15.34
2022-09-10T01:30:55.874Z,15.42
2022-09-10T01:33:22.272Z,15.32
2022-09-10T01:35:48.356Z,15.26
2022-09-10T01:38:14.437Z,15.27
2022-09-10T01:40:40.537Z,15.32
2022-09-10T01:43:06.635Z,15.37
2022-09-10T01:45:32.778Z,15.37
2022-09-10T01:47:58.892Z,15.32
2022-09-10T01:50:24.988Z,15.32
2022-09-10T01:52:51.086Z,15.33
2022-09-10T01:55:17.195Z,15.34
2022-09-10T01:57:43.290Z,15.41
2022-09-10T02:00:11.038Z,15.38
2022-09-10T02:02:37.201Z,15.45
2022-09-10T02:05:03.302Z,15.41
2022-09-10T02:07:29.587Z,15.45
2022-09-10T02:09:55.700Z,15.41
2022-09-10T02:12:21.798Z,15.41
2022-09-10T02:14:47.878Z,15.42
2022-09-10T02:17:13.991Z,15.40
2022-09-10T02:19:40.077Z,15.42
2022-09-10T02:22:06.153Z,15.43
2022-09-10T02:24:32.256Z,15.37
2022-09-10T02:26:58.329Z,15.42
2022-09-10T02:29:24.422Z,15.42
2022-09-10T02:31:50.594Z,15.36
2022-09-10T02:34:16.715Z,15.42
2022-09-10T02:36:42.796Z,15.30
2022-09-10T02:39:08.925Z,15.33
2022-09-10T02:41:35.130Z,15.33
2022-09-10T02:44:01.250Z,15.40
2022-09-10T02:46:27.359Z,15.37
2022-09-10T02:48:53.443Z,15.26
2022-09-10T02:51:19.537Z,15.21
2022-09-10T02:53:45.651Z,15.30
2022-09-10T02:56:11.737Z,15.28
2022-09-10T02:58:37.826Z,15.33
2022-09-10T03:01:03.994Z,15.40
2022-09-10T03:03:30.116Z,15.38
2022-09-10T03:05:56.211Z,15.30
2022-09-10T03:08:22.327Z,15.32
2022-09-10T03:10:48.418Z,15.29
2022-09-10T03:13:14.504Z,15.32
2022-09-10T03:15:40.614Z,15.31
2022-09-10T03:18:06.707Z,15.28
2022-09-10T03:20:32.789Z,15.47
2022-09-10T03:22:58.898Z,15.39
2022-09-10T03:25:24.986Z,15.23
2022-09-10T03:27:51.068Z,15.26
2022-09-10T03:30:17.165Z,15.22
2022-09-10T03:32:43.256Z,15.17
2022-09-10T03:35:09.357Z,15.26
2022-09-10T03:37:35.887Z,15.22
2022-09-10T03:40:02.060Z,15.28
2022-09-10T03:42:28.192Z,15.31
2022-09-10T03:44:54.594Z,15.35
2022-09-10T03:47:20.682Z,15.29
2022-09-10T03:49:46.786Z,15.34
2022-09-10T03:52:12.930Z,15.30
2022-09-10T03:54:39.033Z,15.29
2022-09-10T03:57:05.128Z,15.30
2022-09-10T03:59:31.252Z,15.25
2022-09-10T04:01:57.371Z,15.34
2022-09-10T04:04:23.518Z,15.31
2022-09-10T04:06:49.703Z,15.32
2022-09-10T04:09:15.802Z,15.35
2022-09-10T04:11:41.880Z,15.34
2022-09-10T04:14:07.990Z,15.39
2022-09-10T04:16:34.164Z,15.38
2022-09-10T04:19:00.607Z,15.39
2022-09-10T04:21:26.714Z,15.36
2022-09-10T04:23:52.819Z,15.26
2022-09-10T04:26:18.911Z,15.28
2022-09-10T04:28:45.016Z,15.24
2022-09-10T04:31:11.122Z,15.25
2022-09-10T04:33:37.211Z,15.37
2022-09-10T04:36:03.318Z,15.22
2022-09-10T04:38:29.481Z,15.20
2022-09-10T04:40:55.619Z,15.22
2022-09-10T04:43:22.079Z,15.21
2022-09-10T04:45:48.220Z,15.20
2022-09-10T04:48:14.380Z,15.20
2022-09-10T04:50:54.026Z,15.18
2022-09-10T04:53:26.553Z,15.22
2022-09-10T04:55:52.657Z,15.19
2022-09-10T04:58:18.762Z,15.15
2022-09-10T05:00:44.873Z,15.17
2022-09-10T05:03:11.007Z,15.18
2022-09-10T05:05:37.084Z,15.25
2022-09-10T05:08:03.173Z,15.28
2022-09-10T05:10:29.811Z,15.19
2022-09-10T05:12:55.973Z,15.27
2022-09-10T05:15:22.052Z,15.28
2022-09-10T05:17:48.169Z,15.37
2022-09-10T05:20:14.257Z,15.41
2022-09-10T05:22:40.829Z,15.37
2022-09-10T05:25:07.173Z,15.46
2022-09-10T05:27:33.272Z,15.54
2022-09-10T05:29:59.368Z,15.63
2022-09-10T05:32:25.481Z,15.59
2022-09-10T05:34:51.568Z,15.54
2022-09-10T05:37:17.684Z,15.61
2022-09-10T05:39:43.831Z,15.63
2022-09-10T05:42:09.953Z,15.51
2022-09-10T05:44:36.061Z,15.61
2022-09-10T05:47:02.467Z,15.61
2022-09-10T05:49:28.560Z,15.66
2022-09-10T05:51:54.662Z,15.66
2022-09-10T05:54:20.759Z,15.74
2022-09-10T05:56:46.836Z,15.69
2022-09-10T05:59:12.936Z,15.75
2022-09-10T06:01:39.049Z,15.64
2022-09-10T06:04:05.164Z,15.58
2022-09-10T06:06:31.245Z,15.75
2022-09-10T06:08:57.390Z,15.80
2022-09-10T06:11:23.520Z,15.61
2022-09-10T06:13:49.689Z,15.54
2022-09-10T06:16:16.377Z,15.58
2022-09-10T06:18:42.476Z,15.76
2022-09-10T06:21:08.588Z,15.73
2022-09-10T06:23:34.711Z,15.66
2022-09-10T06:26:00.854Z,15.58
2022-09-10T06:28:26.966Z,15.60
2022-09-10T06:30:53.143Z,15.57
2022-09-10T06:33:19.313Z,15.50
2022-09-10T06:35:45.396Z,15.53
2022-09-10T06:38:11.510Z,15.60
2022-09-10T06:40:37.625Z,15.59
2022-09-10T06:43:03.756Z,15.66
2022-09-10T06:45:29.918Z,15.61
2022-09-10T06:48:37.234Z,15.55
2022-09-10T06:50:42.169Z,15.61
2022-09-10T06:53:08.253Z,15.68
2022-09-10T06:55:34.336Z,15.69
2022-09-10T06:58:00.440Z,15.60
2022-09-10T07:00:26.538Z,15.75
2022-09-10T07:02:52.625Z,15.81
2022-09-10T07:05:18.729Z,15.77
2022-09-10T07:07:44.838Z,15.80
2022-09-10T07:10:10.938Z,15.80
2022-09-10T07:12:37.054Z,15.84
2022-09-10T07:15:03.139Z,15.86
2022-09-10T07:17:32.005Z,15.94
2022-09-10T07:19:58.293Z,15.93
2022-09-10T07:22:24.382Z,15.96
2022-09-10T07:24:50.474Z,15.95
2022-09-10T07:27:16.578Z,16.01
2022-09-10T07:29:42.670Z,15.95
2022-09-10T07:32:12.890Z,15.85
2022-09-10T07:34:39.742Z,15.89
2022-09-10T07:37:05.829Z,15.94
2022-09-10T07:39:31.966Z,15.98
2022-09-10T07:41:58.120Z,16.02
2022-09-10T07:44:24.196Z,16.03
2022-09-10T07:46:50.273Z,15.96
2022-09-10T07:49:16.660Z,16.05
2022-09-10T07:51:42.766Z,16.18
2022-09-10T07:54:08.853Z,16.27
2022-09-10T07:56:35.456Z,16.23
2022-09-10T07:59:01.548Z,16.39
2022-09-10T08:01:27.720Z,16.40
2022-09-10T08:03:53.842Z,16.40
2022-09-10T08:06:19.930Z,16.31
2022-09-10T08:08:46.021Z,16.45
2022-09-10T08:11:12.292Z,16.53
2022-09-10T08:13:38.404Z,16.51
2022-09-10T08:16:04.522Z,16.38
2022-09-10T08:18:30.973Z,16.45
2022-09-10T08:20:57.090Z,16.53
2022-09-10T08:23:23.185Z,16.72
2022-09-10T08:25:49.305Z,16.74
2022-09-10T08:28:15.409Z,16.93
2022-09-10T08:30:41.538Z,16.90
2022-09-10T08:33:07.694Z,17.07
2022-09-10T08:35:33.786Z,17.25
2022-09-10T08:37:59.870Z,17.32
2022-09-10T08:40:26.064Z,17.43
2022-09-10T08:42:52.188Z,17.39
2022-09-10T08:45:18.268Z,17.29
2022-09-10T08:47:44.362Z,17.13
2022-09-10T08:50:10.452Z,17.19
2022-09-10T08:52:36.538Z,17.30
2022-09-10T08:55:03.156Z,17.42
2022-09-10T08:57:29.247Z,17.37
2022-09-10T08:59:55.437Z,17.56
2022-09-10T09:02:44.881Z,17.53
2022-09-10T09:05:07.658Z,17.52
2022-09-10T09:07:33.790Z,17.52
2022-09-10T09:09:59.882Z,17.48
2022-09-10T09:12:25.970Z,17.63
2022-09-10T09:14:52.131Z,17.76
2022-09-10T09:17:18.246Z,17.77
2022-09-10T09:19:44.375Z,17.94
2022-09-10T09:22:10.540Z,17.88
2022-09-10T09:24:36.627Z,18.02
2022-09-10T09:27:02.721Z,17.99
2022-09-10T09:29:28.819Z,17.98
2022-09-10T09:31:54.905Z,18.00
2022-09-10T09:34:20.993Z,18.05
2022-09-10T09:36:47.099Z,17.94
2022-09-10T09:39:13.194Z,17.99
2022-09-10T09:41:39.298Z,17.85
2022-09-10T09:44:05.412Z,18.06
2022-09-10T09:46:31.532Z,18.10
2022-09-10T09:48:57.684Z,18.08
2022-09-10T09:51:23.851Z,18.15
2022-09-10T09:54:01.027Z,18.15
2022-09-10T09:56:36.687Z,18.28
2022-09-10T09:59:02.795Z,18.32
2022-09-10T10:01:29.005Z,18.48
2022-09-10T10:03:55.164Z,18.47
2022-09-10T10:06:21.247Z,18.56
2022-09-10T10:08:47.342Z,18.36
2022-09-10T10:11:13.531Z,18.22
2022-09-10T10:13:39.655Z,18.20
2022-09-10T10:16:05.798Z,18.27
2022-09-10T10:18:32.035Z,18.55
2022-09-10T10:20:58.141Z,18.57
2022-09-10T10:23:27.073Z,18.66
2022-09-10T10:25:55.312Z,18.35
2022-09-10T10:28:21.393Z,18.41
2022-09-10T10:30:49.650Z,18.34
2022-09-10T10:33:15.782Z,18.21
2022-09-10T10:35:41.868Z,18.29
2022-09-10T10:38:07.962Z,18.26
2022-09-10T10:40:34.073Z,18.07
2022-09-10T10:43:00.157Z,18.23
2022-09-10T10:45:26.246Z,18.21
2022-09-10T10:47:52.349Z,18.27
2022-09-10T10:50:18.444Z,18.25
2022-09-10T10:52:44.534Z,18.17
2022-09-10T10:55:10.637Z,18.38
2022-09-10T10:57:36.716Z,18.21
2022-09-10T11:00:02.800Z,17.94
2022-09-10T11:02:28.973Z,18.10
2022-09-10T11:04:55.129Z,18.02
2022-09-10T11:07:21.205Z,17.76
2022-09-10T11:09:47.314Z,17.72
2022-09-10T11:12:13.408Z,17.60
2022-09-10T11:14:39.499Z,17.50
2022-09-10T11:17:05.619Z,17.61
2022-09-10T11:19:31.756Z,17.43
2022-09-10T11:21:57.850Z,17.35
2022-09-10T11:24:24.024Z,17.29
2022-09-10T11:26:50.213Z,17.23
2022-09-10T11:29:16.373Z,16.86
2022-09-10T11:31:42.522Z,16.96
2022-09-10T11:34:08.632Z,17.01
2022-09-10T11:36:34.763Z,16.79
2022-09-10T11:39:00.882Z,16.74
2022-09-10T11:41:26.979Z,16.74
2022-09-10T11:43:53.172Z,16.75
2022-09-10T11:46:19.319Z,16.54
2022-09-10T11:48:45.459Z,16.36
2022-09-10T11:51:11.565Z,16.32
2022-09-10T11:53:37.693Z,16.21
2022-09-10T11:56:03.784Z,16.31
2022-09-10T11:58:29.873Z,16.50
2022-09-10T12:00:55.986Z,16.68
2022-09-10T12:03:22.125Z,16.68
2022-09-10T12:05:48.262Z,16.63
2022-09-10T12:08:14.417Z,16.65
2022-09-10T12:10:40.509Z,16.69
2022-09-10T12:13:06.599Z,16.72
2022-09-10T12:15:32.723Z,16.67
2022-09-10T12:17:58.831Z,16.65
2022-09-10T12:20:24.930Z,16.50
2022-09-10T12:22:51.047Z,16.63
2022-09-10T12:25:17.133Z,16.44
2022-09-10T12:27:43.319Z,16.22
2022-09-10T12:30:09.422Z,15.88
2022-09-10T12:32:35.515Z,15.47
2022-09-10T12:35:01.612Z,15.60
2022-09-10T12:37:27.737Z,15.81
2022-09-10T12:39:53.882Z,16.06
2022-09-10T12:42:20.016Z,16.32
2022-09-10T12:44:46.122Z,16.22
2022-09-10T12:47:12.216Z,15.99
2022-09-10T12:49:38.340Z,15.91
2022-09-10T12:52:04.461Z,15.92
2022-09-10T12:54:30.555Z,16.02
2022-09-10T12:56:56.637Z,15.70
2022-09-10T12:59:23.225Z,15.61
2022-09-10T13:01:49.391Z,15.65
2022-09-10T13:04:15.569Z,15.41
2022-09-10T13:06:41.669Z,15.17
2022-09-10T13:09:07.769Z,15.26
2022-09-10T13:11:34.002Z,15.35
2022-09-10T13:14:00.488Z,15.52
2022-09-10T13:16:26.569Z,15.26
2022-09-10T13:18:56.773Z,15.24
2022-09-10T13:21:23.218Z,15.39
2022-09-10T13:23:49.379Z,15.59
2022-09-10T13:26:15.499Z,15.59
2022-09-10T13:28:41.907Z,15.65
2022-09-10T13:31:08.078Z,15.66
2022-09-10T13:33:34.266Z,15.74
2022-09-10T13:36:00.383Z,15.65
2022-09-10T13:38:26.467Z,15.58
2022-09-10T13:40:52.567Z,15.68
2022-09-10T13:43:18.692Z,15.65
2022-09-10T13:45:44.800Z,15.58
2022-09-10T13:48:10.884Z,15.52
2022-09-10T13:50:36.997Z,15.48
2022-09-10T13:53:03.086Z,15.48
2022-09-10T13:55:29.186Z,15.51
2022-09-10T13:57:55.305Z,15.49
2022-09-10T14:00:21.388Z,15.58
2022-09-10T14:02:47.577Z,15.57
2022-09-10T14:05:13.832Z,15.61
2022-09-10T14:07:39.912Z,15.60
2022-09-10T14:10:06.011Z,15.57
2022-09-10T14:12:32.130Z,15.56
2022-09-10T14:14:58.392Z,15.62
2022-09-10T14:17:24.505Z,15.64
2022-09-10T14:19:50.615Z,15.63
2022-09-10T14:22:16.722Z,15.59
2022-09-10T14:24:42.809Z,15.56
2022-09-10T14:27:08.915Z,15.59
2022-09-10T14:29:35.001Z,15.68
2022-09-10T14:32:01.097Z,15.70
2022-09-10T14:34:27.212Z,15.59
2022-09-10T14:36:53.336Z,15.68
2022-09-10T14:39:19.616Z,15.71
2022-09-10T14:41:45.733Z,15.67
2022-09-10T14:44:11.819Z,15.70
2022-09-10T14:46:38.008Z,15.84
2022-09-10T14:49:04.105Z,15.70
2022-09-10T14:51:30.184Z,15.71
2022-09-10T14:53:56.279Z,15.85
2022-09-10T14:56:22.401Z,15.77
2022-09-10T14:58:48.492Z,15.62
2022-09-10T15:01:14.638Z,15.73
2022-09-10T15:03:40.803Z,15.77
2022-09-10T15:06:06.962Z,15.69
2022-09-10T15:08:33.055Z,15.71
2022-09-10T15:10:59.214Z,15.64
2022-09-10T15:13:25.313Z,15.82
2022-09-10T15:15:51.440Z,15.92
2022-09-10T15:18:17.858Z,15.85
2022-09-10T15:20:43.965Z,15.72
2022-09-10T15:23:10.102Z,15.75
2022-09-10T15:25:38.666Z,15.77
2022-09-10T15:28:04.854Z,15.90
2022-09-10T15:30:30.933Z,16.01
2022-09-10T15:32:57.137Z,15.93
2022-09-10T15:35:23.236Z,15.91
2022-09-10T15:37:49.573Z,16.07
2022-09-10T15:40:15.703Z,16.01
2022-09-10T15:42:41.856Z,15.98
2022-09-10T15:45:08.010Z,15.77
2022-09-10T15:47:34.125Z,15.69
2022-09-10T15:50:00.247Z,15.59
2022-09-10T15:52:26.357Z,15.68
2022-09-10T15:54:52.462Z,15.60
2022-09-10T15:57:18.661Z,15.68
2022-09-10T15:59:44.801Z,15.69
2022-09-10T16:02:10.940Z,15.69
2022-09-10T16:04:40.265Z,15.80
2022-09-10T16:07:08.605Z,15.91
2022-09-10T16:09:34.736Z,15.97
2022-09-10T16:12:00.853Z,16.24
2022-09-10T16:14:26.942Z,16.32
2022-09-10T16:16:53.041Z,16.37
2022-09-10T16:19:19.130Z,16.30
2022-09-10T16:21:45.265Z,16.37
2022-09-10T16:24:11.908Z,16.32
2022-09-10T16:26:38.043Z,16.44
2022-09-10T16:29:04.181Z,16.39
2022-09-10T16:31:30.436Z,16.47
2022-09-10T16:33:56.576Z,16.42
2022-09-10T16:36:22.686Z,16.30
2022-09-10T16:38:48.812Z,16.29
2022-09-10T16:41:14.898Z,16.40
2022-09-10T16:43:41.020Z,16.36
2022-09-10T16:46:07.177Z,16.55
2022-09-10T16:48:33.328Z,16.53
2022-09-10T16:50:59.409Z,16.37
2022-09-10T16:53:25.531Z,16.42
2022-09-10T16:55:51.627Z,16.41
2022-09-10T16:58:17.734Z,16.41
2022-09-10T17:00:43.840Z,16.42
2022-09-10T17:03:09.947Z,16.46
2022-09-10T17:05:36.041Z,16.38
2022-09-10T17:08:02.582Z,16.53
2022-09-10T17:10:28.685Z,16.36
2022-09-10T17:12:54.806Z,16.31
2022-09-10T17:15:20.946Z,16.35
2022-09-10T17:17:49.453Z,16.31
2022-09-10T17:20:15.561Z,16.29
2022-09-10T17:22:41.666Z,16.35
2022-09-10T17:25:07.763Z,16.40
2022-09-10T17:27:33.843Z,16.45
2022-09-10T17:29:59.955Z,16.34
2022-09-10T17:32:26.044Z,16.43
2022-09-10T17:34:52.120Z,16.34
2022-09-10T17:37:18.228Z,16.39
2022-09-10T17:39:44.361Z,16.33
2022-09-10T17:42:10.473Z,16.17
2022-09-10T17:44:36.583Z,16.24
2022-09-10T17:47:02.664Z,16.28
2022-09-10T17:49:28.762Z,16.33
2022-09-10T17:51:54.899Z,16.22
2022-09-10T17:54:20.986Z,16.25
2022-09-10T17:56:47.073Z,16.37
2022-09-10T17:59:13.239Z,16.47
2022-09-10T18:01:39.420Z,16.24
2022-09-10T18:04:05.562Z,16.09
2022-09-10T18:06:31.666Z,15.97
2022-09-10T18:08:57.785Z,15.91
2022-09-10T18:11:23.865Z,15.90
2022-09-10T18:13:50.028Z,15.81
2022-09-10T18:16:16.225Z,15.71
2022-09-10T18:18:42.331Z,15.66
2022-09-10T18:21:08.541Z,15.64
2022-09-10T18:23:34.778Z,15.91
2022-09-10T18:26:00.886Z,15.93
2022-09-10T18:28:27.114Z,15.93
2022-09-10T18:30:53.283Z,15.88
2022-09-10T18:33:19.428Z,15.89
2022-09-10T18:35:45.843Z,15.99
2022-09-10T18:38:12.057Z,16.09
2022-09-10T18:40:38.136Z,16.04
2022-09-10T18:43:04.301Z,15.94
2022-09-10T18:45:30.439Z,15.92
2022-09-10T18:47:56.544Z,15.98
2022-09-10T18:50:22.642Z,15.79
2022-09-10T18:52:48.729Z,15.76
2022-09-10T18:55:14.822Z,16.01
2022-09-10T18:57:40.933Z,16.13
2022-09-10T19:00:07.030Z,16.16
2022-09-10T19:02:33.197Z,16.18
2022-09-10T19:05:14.727Z,16.12
2022-09-10T19:07:40.838Z,16.00
2022-09-10T19:10:07.148Z,16.03
2022-09-10T19:12:33.357Z,15.90
2022-09-10T19:14:59.455Z,16.02
2022-09-10T19:17:25.565Z,15.95
2022-09-10T19:19:51.669Z,15.99
2022-09-10T19:22:17.769Z,16.13
2022-09-10T19:24:54.604Z,16.14
2022-09-10T19:27:21.614Z,16.08
2022-09-10T19:29:48.184Z,15.93
2022-09-10T19:32:14.302Z,16.07
2022-09-10T19:34:40.376Z,16.08
2022-09-10T19:37:06.857Z,16.01
2022-09-10T19:39:32.981Z,16.07
2022-09-10T19:41:59.134Z,16.15
2022-09-10T19:44:25.228Z,16.23
2022-09-10T19:46:51.323Z,16.18
2022-09-10T19:49:17.435Z,16.34
2022-09-10T19:51:43.570Z,16.25
2022-09-10T19:54:09.798Z,16.40
2022-09-10T19:56:35.890Z,16.29
2022-09-10T19:59:01.989Z,16.39
2022-09-10T20:01:28.105Z,16.40
2022-09-10T20:03:54.218Z,16.19
2022-09-10T20:06:20.333Z,16.38
2022-09-10T20:08:46.415Z,16.36
2022-09-10T20:11:12.513Z,16.35
2022-09-10T20:13:38.656Z,16.35
2022-09-10T20:16:04.770Z,16.46
2022-09-10T20:18:30.934Z,16.29
2022-09-10T20:20:57.093Z,16.34
2022-09-10T20:23:23.178Z,16.39
2022-09-10T20:25:49.274Z,16.39
2022-09-10T20:28:15.390Z,16.21
2022-09-10T20:30:41.491Z,16.11
2022-09-10T20:33:07.603Z,16.15
2022-09-10T20:35:34.194Z,16.23
2022-09-10T20:38:00.433Z,16.12
2022-09-10T20:40:26.526Z,15.99
2022-09-10T20:42:53.120Z,16.04
2022-09-10T20:45:19.226Z,15.96
2022-09-10T20:47:45.336Z,16.02
2022-09-10T20:50:11.580Z,15.99
2022-09-10T20:52:37.676Z,15.96
2022-09-10T20:55:03.770Z,16.09
2022-09-10T20:57:29.864Z,16.01
2022-09-10T20:59:55.942Z,16.02
2022-09-10T21:02:22.082Z,15.95
2022-09-10T21:04:48.225Z,15.93
2022-09-10T21:07:14.314Z,16.02
2022-09-10T21:09:40.408Z,16.07
2022-09-10T21:12:06.525Z,16.04
2022-09-10T21:14:32.614Z,15.99
2022-09-10T21:16:58.701Z,16.14
2022-09-10T21:19:24.803Z,16.13
2022-09-10T21:21:50.889Z,16.09
2022-09-10T21:24:16.981Z,16.07
2022-09-10T21:26:43.094Z,16.05
2022-09-10T21:29:09.192Z,16.13
2022-09-10T21:31:35.289Z,16.24
2022-09-10T21:34:03.409Z,16.30
2022-09-10T21:36:29.753Z,16.34
2022-09-10T21:38:55.850Z,16.33
2022-09-10T21:41:21.977Z,16.34
2022-09-10T21:43:48.068Z,16.35
2022-09-10T21:46:14.168Z,16.30
2022-09-10T21:48:40.361Z,16.38
2022-09-10T21:51:06.550Z,16.45
2022-09-10T21:53:32.645Z,16.46
2022-09-10T21:55:59.023Z,16.52
2022-09-10T21:58:25.131Z,16.45
2022-09-10T22:00:51.227Z,16.43
2022-09-10T22:03:17.329Z,16.45
2022-09-10T22:05:43.408Z,16.44
2022-09-10T22:08:09.513Z,16.46
2022-09-10T22:10:35.634Z,16.49
2022-09-10T22:13:01.744Z,16.45
2022-09-10T22:15:27.881Z,16.46
2022-09-10T22:17:54.300Z,16.48
2022-09-10T22:20:20.402Z,16.43
2022-09-10T22:22:46.490Z,16.40
2022-09-10T22:25:12.588Z,16.45
2022-09-10T22:27:38.691Z,16.47
2022-09-10T22:30:04.799Z,16.56
2022-09-10T22:32:30.907Z,16.48
2022-09-10T22:34:57.008Z,16.60
2022-09-10T22:37:23.114Z,16.59
2022-09-10T22:39:49.599Z,16.54
2022-09-10T22:42:15.737Z,16.55
2022-09-10T22:44:41.826Z,16.60
2022-09-10T22:47:07.965Z,16.57
2022-09-10T22:49:34.046Z,16.58
2022-09-10T22:52:00.142Z,16.58
2022-09-10T22:54:26.265Z,16.48
2022-09-10T22:56:52.383Z,16.46
2022-09-10T22:59:18.470Z,16.44
2022-09-10T23:01:44.624Z,16.36
2022-09-10T23:04:10.761Z,16.42
2022-09-10T23:06:36.836Z,16.53
2022-09-10T23:09:02.945Z,16.46
2022-09-10T23:11:29.032Z,16.45
2022-09-10T23:13:55.126Z,16.38
2022-09-10T23:16:21.324Z,16.33
2022-09-10T23:18:47.444Z,16.39
2022-09-10T23:21:13.534Z,16.37
2022-09-10T23:23:39.683Z,16.29
2022-09-10T23:26:05.763Z,16.27
2022-09-10T23:28:31.856Z,16.25
2022-09-10T23:30:58.004Z,16.24
2022-09-10T23:33:24.171Z,16.12
2022-09-10T23:35:50.261Z,16.17
2022-09-10T23:38:16.366Z,16.24
2022-09-10T23:40:42.445Z,16.22
2022-09-10T23:43:08.541Z,16.09
2022-09-10T23:45:35.143Z,16.14
2022-09-10T23:48:01.231Z,16.10
2022-09-10T23:50:27.358Z,16.10
2022-09-10T23:52:53.490Z,16.12
2022-09-10T23:55:19.625Z,16.30
2022-09-10T23:57:45.736Z,16.19
